La rose des vents
Donnes mto: Semaine 22/01/07 - 28/01/07 (S 4)
Date Horaire Temp. E. Hum. E. P.atmo. Pluie Vent 1mn Direction Ensoleilleme Ev.Tr. Solaire P. de rose Temp au vent Rafales
22/01/2007 00:00 10,3 C 92 % 1014,1 hPa 0,0 l/m 2,5 km/h (1 Bft) O-NO 0,00 h 0,000 mm 0 W/m 9,0 C 10,3 C 4,1 km/h (1 Bft)
22/01/2007 01:00 9,9 C 91 % 1013,6 hPa 0,0 l/m 2,0 km/h (1 Bft) O-NO 0,00 h 0,000 mm 0 W/m 8,5 C 9,9 C 3,9 km/h (1 Bft)
22/01/2007 02:00 9,9 C 91 % 1013,4 hPa 0,0 l/m 2,2 km/h (1 Bft) NO 0,00 h 0,000 mm 0 W/m 8,5 C 9,8 C 4,2 km/h (1 Bft)
22/01/2007 03:00 9,7 C 91 % 1013,1 hPa 0,0 l/m 1,9 km/h (1 Bft) NO 0,00 h 0,000 mm 0 W/m 8,2 C 9,7 C 3,7 km/h (1 Bft)
22/01/2007 04:00 9,4 C 90 % 1012,7 hPa 0,0 l/m 2,2 km/h (1 Bft) NO 0,00 h 0,000 mm 0 W/m 7,9 C 9,4 C 4,0 km/h (1 Bft)
22/01/2007 05:00 9,5 C 89 % 1012,5 hPa 0,0 l/m 3,2 km/h (1 Bft) NO 0,00 h 0,025 mm 0 W/m 7,8 C 9,4 C 4,6 km/h (1 Bft)
22/01/2007 06:00 9,4 C 87 % 1012,5 hPa 0,0 l/m 2,5 km/h (1 Bft) NO 0,00 h 0,025 mm 0 W/m 7,4 C 9,4 C 4,5 km/h (1 Bft)
22/01/2007 07:00 9,1 C 87 % 1012,4 hPa 0,0 l/m 1,7 km/h (1 Bft) N-NO 0,00 h 0,025 mm 9 W/m 7,1 C 9,1 C 3,2 km/h (1 Bft)
22/01/2007 08:00 9,7 C 86 % 1012,5 hPa 0,0 l/m 1,3 km/h (1 Bft) NO 0,00 h 0,000 mm 18 W/m 7,5 C 9,7 C 3,0 km/h (1 Bft)
22/01/2007 09:00 10,3 C 84 % 1012,5 hPa 0,0 l/m 0,5 km/h (0 Bft) NO 0,00 h 0,025 mm 37 W/m 7,7 C 10,3 C 1,5 km/h (1 Bft)
22/01/2007 10:00 11,1 C 83 % 1012,6 hPa 0,0 l/m 0,1 km/h (0 Bft) NO 0,00 h 0,025 mm 98 W/m 8,4 C 11,1 C 0,4 km/h (0 Bft)
22/01/2007 11:00 12,5 C 79 % 1012,4 hPa 0,0 l/m 1,9 km/h (1 Bft) NE 0,00 h 0,051 mm 194 W/m 9,0 C 12,5 C 3,9 km/h (1 Bft)
22/01/2007 12:00 13,1 C 78 % 1011,5 hPa 0,0 l/m 1,4 km/h (1 Bft) E-NE 0,03 h 0,102 mm 180 W/m 9,4 C 13,1 C 3,0 km/h (1 Bft)
22/01/2007 13:00 12,9 C 78 % 1010,7 hPa 0,0 l/m 0,6 km/h (0 Bft) E 0,00 h 0,102 mm 134 W/m 9,3 C 12,9 C 2,0 km/h (1 Bft)
22/01/2007 14:00 12,7 C 78 % 1009,9 hPa 0,0 l/m 1,9 km/h (1 Bft) E-SE 0,00 h 0,076 mm 113 W/m 9,1 C 12,7 C 3,7 km/h (1 Bft)
22/01/2007 15:00 12,3 C 81 % 1009,2 hPa 0,0 l/m 4,6 km/h (1 Bft) NE 0,00 h 0,076 mm 84 W/m 9,1 C 12,3 C 6,7 km/h (2 Bft)
22/01/2007 16:00 11,5 C 87 % 1008,6 hPa 0,0 l/m 3,0 km/h (1 Bft) E-NE 0,00 h 0,051 mm 26 W/m 9,4 C 11,5 C 5,0 km/h (1 Bft)
22/01/2007 17:00 11,1 C 89 % 1008,2 hPa 0,0 l/m 3,3 km/h (1 Bft) NE 0,00 h 0,025 mm 8 W/m 9,4 C 11,1 C 5,2 km/h (1 Bft)
22/01/2007 18:00 11,3 C 90 % 1008,0 hPa 0,0 l/m 7,3 km/h (2 Bft) E-NE 0,00 h 0,000 mm 0 W/m 9,7 C 11,3 C 10,1 km/h (2 Bft)
22/01/2007 19:00 11,2 C 89 % 1007,9 hPa 0,0 l/m 6,6 km/h (2 Bft) NE 0,00 h 0,025 mm 0 W/m 9,4 C 11,2 C 9,9 km/h (2 Bft)
22/01/2007 20:00 10,4 C 91 % 1007,2 hPa 0,0 l/m 2,2 km/h (1 Bft) N-NE 0,00 h 0,025 mm 0 W/m 9,0 C 10,4 C 4,4 km/h (1 Bft)
22/01/2007 21:00 10,6 C 83 % 1006,8 hPa 0,0 l/m 2,0 km/h (1 Bft) N-NE 0,00 h 0,025 mm 0 W/m 7,9 C 10,6 C 4,1 km/h (1 Bft)
22/01/2007 22:00 10,9 C 78 % 1006,4 hPa 0,0 l/m 1,2 km/h (1 Bft) NE 0,00 h 0,025 mm 0 W/m 7,2 C 10,9 C 2,6 km/h (1 Bft)
22/01/2007 23:00 10,7 C 77 % 1005,9 hPa 0,0 l/m 2,3 km/h (1 Bft) N-NE 0,00 h 0,025 mm 0 W/m 6,8 C 10,7 C 4,2 km/h (1 Bft)
23/01/2007 00:00 10,9 C 78 % 1005,3 hPa 0,0 l/m 3,6 km/h (1 Bft) N-NE 0,00 h 0,025 mm 0 W/m 7,1 C 10,9 C 6,2 km/h (2 Bft)
23/01/2007 01:00 11,0 C 79 % 1004,3 hPa 0,0 l/m 3,1 km/h (1 Bft) N-NE 0,00 h 0,025 mm 0 W/m 7,5 C 11,0 C 5,4 km/h (1 Bft)
23/01/2007 02:00 11,3 C 81 % 1003,4 hPa 0,0 l/m 9,0 km/h (2 Bft) E-NE 0,00 h 0,025 mm 0 W/m 8,1 C 11,3 C 12,4 km/h (3 Bft)
23/01/2007 03:00 11,8 C 89 % 1002,3 hPa 0,6 l/m 16,6 km/h (3 Bft) E 0,00 h 0,025 mm 0 W/m 10,1 C 11,8 C 23,9 km/h (4 Bft)
23/01/2007 04:00 11,3 C 95 % 1001,5 hPa 2,0 l/m 6,3 km/h (2 Bft) E 0,00 h 0,025 mm 0 W/m 10,5 C 11,3 C 10,5 km/h (2 Bft)
23/01/2007 05:00 11,5 C 96 % 1000,8 hPa 0,0 l/m 7,8 km/h (2 Bft) S 0,00 h 0,025 mm 0 W/m 10,9 C 11,5 C 11,4 km/h (2 Bft)
23/01/2007 06:00 11,3 C 97 % 1000,2 hPa 0,2 l/m 5,9 km/h (2 Bft) S 0,00 h 0,025 mm 0 W/m 10,8 C 11,3 C 8,2 km/h (2 Bft)
23/01/2007 07:00 11,3 C 97 % 999,6 hPa 0,0 l/m 1,9 km/h (1 Bft) S-SE 0,00 h 0,000 mm 0 W/m 10,8 C 11,3 C 3,9 km/h (1 Bft)
23/01/2007 08:00 11,5 C 97 % 998,7 hPa 0,0 l/m 4,6 km/h (1 Bft) S-SE 0,00 h 0,000 mm 23 W/m 11,0 C 11,5 C 9,1 km/h (2 Bft)
23/01/2007 09:00 11,7 C 97 % 997,4 hPa 0,0 l/m 13,5 km/h (3 Bft) S-SE 0,08 h 0,025 mm 45 W/m 11,3 C 11,7 C 19,9 km/h (4 Bft)
23/01/2007 10:00 8,7 C 94 % 997,3 hPa 0,8 l/m 25,1 km/h (4 Bft) O-SO 0,00 h 0,025 mm 24 W/m 7,9 C 5,5 C 34,1 km/h (5 Bft)
23/01/2007 11:00 7,3 C 92 % 997,5 hPa 2,0 l/m 16,3 km/h (3 Bft) O 0,00 h 0,051 mm 34 W/m 6,1 C 4,5 C 23,4 km/h (4 Bft)
23/01/2007 12:00 7,4 C 93 % 996,6 hPa 0,2 l/m 1,4 km/h (1 Bft) NO 0,00 h 0,025 mm 79 W/m 6,3 C 7,4 C 2,7 km/h (1 Bft)
23/01/2007 13:00 8,2 C 93 % 995,9 hPa 0,0 l/m 0,2 km/h (0 Bft) N 0,00 h 0,025 mm 121 W/m 7,1 C 8,2 C 1,0 km/h (0 Bft)
23/01/2007 14:00 8,7 C 93 % 995,1 hPa 0,0 l/m 0,4 km/h (0 Bft) NO 0,00 h 0,051 mm 100 W/m 7,7 C 8,7 C 0,9 km/h (0 Bft)
23/01/2007 15:00 7,7 C 92 % 994,5 hPa 3,0 l/m 12,8 km/h (3 Bft) O-SO 0,00 h 0,051 mm 35 W/m 6,5 C 5,7 C 17,1 km/h (3 Bft)
23/01/2007 16:00 6,2 C 90 % 994,2 hPa 0,0 l/m 21,9 km/h (4 Bft) SO 0,85 h 0,025 mm 100 W/m 4,7 C 2,5 C 29,4 km/h (5 Bft)
23/01/2007 17:00 5,1 C 81 % 994,2 hPa 0,0 l/m 23,9 km/h (4 Bft) SO 0,23 h 0,076 mm 19 W/m 2,1 C 0,8 C 30,7 km/h (5 Bft)
23/01/2007 18:00 4,3 C 79 % 995,2 hPa 0,0 l/m 15,9 km/h (3 Bft) O-SO 0,00 h 0,051 mm 0 W/m 0,9 C 0,8 C 20,7 km/h (4 Bft)
23/01/2007 19:00 4,0 C 74 % 995,6 hPa 0,0 l/m 19,4 km/h (3 Bft) SO 0,00 h 0,051 mm 0 W/m -0,2 C -0,1 C 23,4 km/h (4 Bft)
23/01/2007 20:00 3,8 C 69 % 995,9 hPa 0,0 l/m 22,0 km/h (4 Bft) SO 0,00 h 0,051 mm 0 W/m -1,4 C -0,7 C 27,4 km/h (4 Bft)
23/01/2007 21:00 3,4 C 71 % 995,7 hPa 0,0 l/m 17,1 km/h (3 Bft) SO 0,00 h 0,076 mm 0 W/m -1,3 C -0,4 C 21,6 km/h (4 Bft)
23/01/2007 22:00 2,9 C 73 % 995,4 hPa 0,0 l/m 16,5 km/h (3 Bft) SO 0,00 h 0,051 mm 0 W/m -1,4 C -1,0 C 21,0 km/h (4 Bft)
23/01/2007 23:00 2,4 C 74 % 995,1 hPa 0,0 l/m 23,9 km/h (4 Bft) SO 0,00 h 0,051 mm 0 W/m -1,7 C -2,6 C 31,1 km/h (5 Bft)
24/01/2007 00:00 1,4 C 78 % 994,1 hPa 0,0 l/m 26,3 km/h (4 Bft) O-SO 0,00 h 0,051 mm 0 W/m -2,0 C -4,2 C 33,6 km/h (5 Bft)
24/01/2007 01:00 0,9 C 81 % 992,7 hPa 0,0 l/m 25,9 km/h (4 Bft) O-SO 0,00 h 0,051 mm 0 W/m -2,0 C -4,8 C 34,6 km/h (5 Bft)
24/01/2007 02:00 0,8 C 82 % 991,6 hPa 0,0 l/m 15,8 km/h (3 Bft) O-SO 0,00 h 0,051 mm 0 W/m -1,9 C -3,2 C 22,9 km/h (4 Bft)
24/01/2007 03:00 1,0 C 81 % 990,9 hPa 0,0 l/m 13,9 km/h (3 Bft) O 0,00 h 0,025 mm 0 W/m -1,9 C -3,0 C 21,0 km/h (4 Bft)
24/01/2007 04:00 1,3 C 78 % 990,2 hPa 0,0 l/m 9,8 km/h (2 Bft) O 0,00 h 0,025 mm 0 W/m -2,0 C -1,5 C 14,7 km/h (3 Bft)
24/01/2007 05:00 1,8 C 75 % 990,0 hPa 0,0 l/m 12,7 km/h (3 Bft) O-SO 0,00 h 0,025 mm 0 W/m -2,3 C -1,5 C 19,0 km/h (3 Bft)
24/01/2007 06:00 1,1 C 76 % 989,8 hPa 0,0 l/m 10,3 km/h (2 Bft) O 0,00 h 0,025 mm 0 W/m -2,7 C -1,9 C 15,4 km/h (3 Bft)
24/01/2007 07:00 1,4 C 74 % 989,8 hPa 0,0 l/m 9,8 km/h (2 Bft) O-SO 0,00 h 0,025 mm 0 W/m -2,8 C -1,4 C 13,7 km/h (3 Bft)
24/01/2007 08:00 1,4 C 69 % 990,1 hPa 0,0 l/m 11,7 km/h (2 Bft) O 0,00 h 0,025 mm 22 W/m -3,6 C -2,0 C 16,4 km/h (3 Bft)
24/01/2007 09:00 2,3 C 68 % 990,1 hPa 0,0 l/m 9,5 km/h (2 Bft) SO 0,90 h 0,051 mm 208 W/m -3,1 C -0,4 C 13,5 km/h (3 Bft)
24/01/2007 10:00 4,6 C 62 % 990,2 hPa 0,0 l/m 4,6 km/h (1 Bft) N-NE 0,98 h 0,102 mm 330 W/m -2,0 C 3,8 C 7,2 km/h (2 Bft)
24/01/2007 11:00 5,6 C 65 % 990,8 hPa 0,0 l/m 3,1 km/h (1 Bft) N-NO 0,33 h 0,152 mm 254 W/m -0,5 C 5,2 C 5,9 km/h (2 Bft)
24/01/2007 12:00 7,8 C 62 % 991,0 hPa 0,0 l/m 5,4 km/h (1 Bft) E-NE 1,00 h 0,127 mm 454 W/m 1,0 C 7,1 C 9,0 km/h (2 Bft)
24/01/2007 13:00 7,8 C 67 % 991,4 hPa 0,0 l/m 5,0 km/h (1 Bft) S-SE 1,00 h 0,229 mm 421 W/m 2,1 C 7,2 C 8,7 km/h (2 Bft)
24/01/2007 14:00 7,6 C 69 % 992,0 hPa 0,0 l/m 7,6 km/h (2 Bft) E 0,98 h 0,203 mm 351 W/m 2,4 C 6,4 C 12,0 km/h (2 Bft)
24/01/2007 15:00 6,6 C 73 % 993,1 hPa 0,0 l/m 4,8 km/h (1 Bft) S-SE 0,70 h 0,178 mm 191 W/m 2,0 C 5,9 C 8,4 km/h (2 Bft)
24/01/2007 16:00 5,9 C 74 % 994,1 hPa 0,0 l/m 1,9 km/h (1 Bft) S-SE 0,30 h 0,102 mm 78 W/m 1,7 C 5,7 C 3,4 km/h (1 Bft)
24/01/2007 17:00 4,9 C 77 % 994,9 hPa 0,0 l/m 1,6 km/h (1 Bft) O 0,17 h 0,051 mm 15 W/m 1,2 C 4,6 C 2,2 km/h (1 Bft)
24/01/2007 18:00 4,1 C 76 % 995,3 hPa 0,0 l/m 5,6 km/h (1 Bft) O 0,00 h 0,000 mm 0 W/m 0,2 C 2,9 C 7,2 km/h (2 Bft)
24/01/2007 19:00 3,7 C 70 % 995,9 hPa 0,0 l/m 5,4 km/h (1 Bft) O 0,00 h 0,025 mm 0 W/m -1,3 C 2,5 C 7,4 km/h (2 Bft)
24/01/2007 20:00 3,4 C 72 % 996,5 hPa 0,0 l/m 4,7 km/h (1 Bft) O-SO 0,00 h 0,025 mm 0 W/m -1,1 C 2,3 C 5,8 km/h (2 Bft)
24/01/2007 21:00 3,5 C 73 % 996,9 hPa 0,0 l/m 1,4 km/h (1 Bft) N-NO 0,00 h 0,025 mm 0 W/m -0,9 C 3,4 C 2,5 km/h (1 Bft)
24/01/2007 22:00 3,4 C 79 % 997,3 hPa 0,0 l/m 2,4 km/h (1 Bft) O-SO 0,00 h 0,025 mm 0 W/m 0,1 C 3,1 C 4,1 km/h (1 Bft)
24/01/2007 23:00 4,0 C 79 % 997,5 hPa 0,0 l/m 3,0 km/h (1 Bft) N 0,00 h 0,025 mm 0 W/m 0,7 C 3,7 C 5,9 km/h (2 Bft)
25/01/2007 00:00 4,2 C 76 % 997,8 hPa 0,0 l/m 2,8 km/h (1 Bft) N 0,00 h 0,025 mm 0 W/m 0,4 C 3,9 C 4,9 km/h (1 Bft)
25/01/2007 01:00 4,0 C 76 % 998,1 hPa 0,0 l/m 4,0 km/h (1 Bft) NE 0,00 h 0,025 mm 0 W/m 0,2 C 3,2 C 6,2 km/h (2 Bft)
25/01/2007 02:00 3,7 C 81 % 998,7 hPa 0,0 l/m 8,0 km/h (2 Bft) N-NE 0,00 h 0,025 mm 0 W/m 0,6 C 1,9 C 12,2 km/h (2 Bft)
25/01/2007 03:00 3,1 C 87 % 999,6 hPa 0,0 l/m 9,5 km/h (2 Bft) NE 0,00 h 0,025 mm 0 W/m 1,1 C 0,5 C 14,6 km/h (3 Bft)
25/01/2007 04:00 2,8 C 90 % 1000,3 hPa 0,2 l/m 4,6 km/h (1 Bft) N 0,00 h 0,025 mm 0 W/m 1,4 C 1,9 C 8,0 km/h (2 Bft)
25/01/2007 05:00 2,9 C 92 % 1001,1 hPa 0,2 l/m 2,9 km/h (1 Bft) N 0,00 h 0,000 mm 0 W/m 1,7 C 2,6 C 5,3 km/h (1 Bft)
25/01/2007 06:00 2,5 C 92 % 1001,8 hPa 0,0 l/m 1,7 km/h (1 Bft) N 0,00 h 0,000 mm 0 W/m 1,3 C 2,4 C 3,7 km/h (1 Bft)
25/01/2007 07:00 1,7 C 92 % 1002,9 hPa 0,0 l/m 1,2 km/h (1 Bft) N 0,00 h 0,000 mm 0 W/m 0,5 C 1,7 C 2,5 km/h (1 Bft)
25/01/2007 08:00 2,5 C 93 % 1004,0 hPa 0,0 l/m 5,4 km/h (1 Bft) NO 0,32 h 0,000 mm 48 W/m 1,5 C 1,2 C 8,2 km/h (2 Bft)
25/01/2007 09:00 4,6 C 83 % 1004,9 hPa 0,0 l/m 2,8 km/h (1 Bft) N-NO 0,93 h 0,025 mm 177 W/m 2,0 C 4,4 C 4,8 km/h (1 Bft)
25/01/2007 10:00 5,9 C 79 % 1006,0 hPa 0,0 l/m 2,0 km/h (1 Bft) S-SO 0,12 h 0,076 mm 175 W/m 2,5 C 5,8 C 3,5 km/h (1 Bft)
25/01/2007 11:00 7,3 C 76 % 1006,7 hPa 0,0 l/m 0,8 km/h (0 Bft) E 0,32 h 0,076 mm 255 W/m 3,4 C 7,3 C 2,3 km/h (1 Bft)
25/01/2007 12:00 7,1 C 73 % 1007,1 hPa 0,0 l/m 3,0 km/h (1 Bft) S 0,00 h 0,102 mm 167 W/m 2,6 C 7,0 C 4,6 km/h (1 Bft)
25/01/2007 13:00 7,7 C 62 % 1007,5 hPa 0,0 l/m 0,9 km/h (0 Bft) S-SO 0,20 h 0,076 mm 199 W/m 0,8 C 7,7 C 2,1 km/h (1 Bft)
25/01/2007 14:00 8,0 C 64 % 1007,6 hPa 0,0 l/m 0,7 km/h (0 Bft) N 0,05 h 0,102 mm 130 W/m 1,7 C 8,0 C 2,1 km/h (1 Bft)
25/01/2007 15:00 8,7 C 62 % 1008,2 hPa 0,0 l/m 1,6 km/h (1 Bft) N 0,77 h 0,076 mm 235 W/m 1,7 C 8,6 C 3,5 km/h (1 Bft)
25/01/2007 16:00 7,5 C 67 % 1008,8 hPa 0,0 l/m 3,4 km/h (1 Bft) S-SE 0,10 h 0,102 mm 47 W/m 1,8 C 7,1 C 5,8 km/h (2 Bft)
25/01/2007 17:00 6,0 C 82 % 1009,6 hPa 0,0 l/m 7,5 km/h (2 Bft) E-NE 0,00 h 0,025 mm 8 W/m 3,2 C 4,5 C 11,4 km/h (2 Bft)
25/01/2007 18:00 4,9 C 84 % 1010,7 hPa 0,0 l/m 3,5 km/h (1 Bft) N-NE 0,00 h 0,025 mm 0 W/m 2,4 C 4,5 C 6,4 km/h (2 Bft)
25/01/2007 19:00 4,9 C 87 % 1011,4 hPa 0,2 l/m 2,1 km/h (1 Bft) N 0,00 h 0,025 mm 0 W/m 2,9 C 4,8 C 4,8 km/h (1 Bft)
25/01/2007 20:00 4,9 C 87 % 1012,1 hPa 0,2 l/m 3,6 km/h (1 Bft) N 0,00 h 0,025 mm 0 W/m 2,9 C 4,4 C 6,1 km/h (2 Bft)
25/01/2007 21:00 4,0 C 90 % 1012,3 hPa 0,0 l/m 2,6 km/h (1 Bft) N 0,00 h 0,025 mm 0 W/m 2,6 C 3,8 C 5,4 km/h (1 Bft)
25/01/2007 22:00 4,3 C 91 % 1013,0 hPa 0,6 l/m 1,7 km/h (1 Bft) N-NE 0,00 h 0,000 mm 0 W/m 2,9 C 4,2 C 3,4 km/h (1 Bft)
25/01/2007 23:00 4,2 C 92 % 1013,7 hPa 0,4 l/m 5,3 km/h (1 Bft) E-NE 0,00 h 0,000 mm 0 W/m 3,0 C 3,1 C 7,9 km/h (2 Bft)
26/01/2007 00:00 3,3 C 95 % 1014,0 hPa 0,8 l/m 7,1 km/h (2 Bft) N 0,00 h 0,000 mm 0 W/m 2,5 C 1,5 C 11,6 km/h (2 Bft)
26/01/2007 01:00 3,4 C 96 % 1013,7 hPa 0,4 l/m 8,0 km/h (2 Bft) N-NO 0,00 h 0,000 mm 0 W/m 2,8 C 1,4 C 13,7 km/h (3 Bft)
26/01/2007 02:00 3,4 C 96 % 1013,5 hPa 0,0 l/m 4,3 km/h (1 Bft) N-NO 0,00 h 0,000 mm 0 W/m 2,8 C 2,6 C 7,6 km/h (2 Bft)
26/01/2007 03:00 3,7 C 95 % 1013,3 hPa 0,0 l/m 3,2 km/h (1 Bft) N-NO 0,00 h 0,000 mm 0 W/m 2,9 C 3,2 C 5,3 km/h (1 Bft)
26/01/2007 04:00 3,8 C 95 % 1013,3 hPa 0,0 l/m 2,9 km/h (1 Bft) N-NO 0,00 h 0,000 mm 0 W/m 3,0 C 3,6 C 4,8 km/h (1 Bft)
26/01/2007 05:00 4,1 C 92 % 1013,4 hPa 0,0 l/m 3,5 km/h (1 Bft) NO 0,00 h 0,000 mm 0 W/m 2,9 C 3,6 C 5,3 km/h (1 Bft)
26/01/2007 06:00 4,0 C 89 % 1013,6 hPa 0,0 l/m 1,7 km/h (1 Bft) N-NO 0,00 h 0,000 mm 0 W/m 2,3 C 3,7 C 3,0 km/h (1 Bft)
26/01/2007 07:00 3,9 C 89 % 1013,9 hPa 0,0 l/m 2,9 km/h (1 Bft) NO 0,00 h 0,000 mm 5 W/m 2,2 C 3,5 C 4,7 km/h (1 Bft)
26/01/2007 08:00 4,8 C 86 % 1014,4 hPa 0,0 l/m 1,1 km/h (1 Bft) NO 0,55 h 0,000 mm 49 W/m 2,6 C 4,8 C 2,2 km/h (1 Bft)
26/01/2007 09:00 5,2 C 85 % 1014,9 hPa 0,0 l/m 3,0 km/h (1 Bft) O-NO 0,17 h 0,025 mm 108 W/m 2,9 C 4,8 C 4,6 km/h (1 Bft)
26/01/2007 10:00 7,8 C 80 % 1015,0 hPa 0,0 l/m 1,3 km/h (1 Bft) SE 1,00 h 0,051 mm 372 W/m 4,6 C 7,8 C 3,0 km/h (1 Bft)
26/01/2007 11:00 8,3 C 72 % 1015,4 hPa 0,0 l/m 2,6 km/h (1 Bft) S 0,15 h 0,178 mm 199 W/m 3,6 C 8,2 C 4,6 km/h (1 Bft)
26/01/2007 12:00 8,7 C 67 % 1014,8 hPa 0,0 l/m 8,1 km/h (2 Bft) S-SO 0,53 h 0,102 mm 348 W/m 2,9 C 7,6 C 11,3 km/h (2 Bft)
26/01/2007 13:00 9,2 C 63 % 1014,1 hPa 0,0 l/m 14,7 km/h (3 Bft) S-SO 0,55 h 0,178 mm 340 W/m 2,5 C 7,2 C 19,5 km/h (3 Bft)
26/01/2007 14:00 9,0 C 68 % 1013,4 hPa 0,0 l/m 14,1 km/h (3 Bft) S-SO 0,08 h 0,203 mm 125 W/m 3,4 C 6,9 C 19,5 km/h (3 Bft)
26/01/2007 15:00 8,8 C 66 % 1013,3 hPa 0,0 l/m 7,8 km/h (2 Bft) SO 0,13 h 0,127 mm 107 W/m 2,8 C 7,7 C 11,4 km/h (2 Bft)
26/01/2007 16:00 8,5 C 69 % 1013,4 hPa 0,0 l/m 4,5 km/h (1 Bft) S-SE 0,28 h 0,076 mm 74 W/m 3,2 C 8,1 C 7,1 km/h (2 Bft)
26/01/2007 17:00 7,8 C 74 % 1013,5 hPa 0,0 l/m 5,9 km/h (2 Bft) S-SE 0,40 h 0,051 mm 27 W/m 3,6 C 7,0 C 9,0 km/h (2 Bft)
26/01/2007 18:00 5,6 C 86 % 1014,5 hPa 0,0 l/m 8,7 km/h (2 Bft) E-NE 0,00 h 0,025 mm 0 W/m 3,4 C 3,8 C 13,1 km/h (3 Bft)
26/01/2007 19:00 5,1 C 89 % 1015,5 hPa 0,0 l/m 7,6 km/h (2 Bft) NE 0,00 h 0,025 mm 0 W/m 3,4 C 3,4 C 11,1 km/h (2 Bft)
26/01/2007 20:00 4,7 C 88 % 1016,2 hPa 0,0 l/m 1,4 km/h (1 Bft) NE 0,00 h 0,025 mm 0 W/m 2,8 C 4,5 C 3,1 km/h (1 Bft)
26/01/2007 21:00 3,4 C 88 % 1016,7 hPa 0,0 l/m 0,6 km/h (0 Bft) NE 0,00 h 0,000 mm 0 W/m 1,6 C 3,4 C 2,3 km/h (1 Bft)
26/01/2007 22:00 3,0 C 88 % 1017,1 hPa 0,0 l/m 4,6 km/h (1 Bft) NO 0,00 h 0,000 mm 0 W/m 1,3 C 2,1 C 6,8 km/h (2 Bft)
26/01/2007 23:00 2,8 C 85 % 1017,7 hPa 0,0 l/m 4,0 km/h (1 Bft) N-NO 0,00 h 0,025 mm 0 W/m 0,6 C 2,1 C 6,0 km/h (2 Bft)
27/01/2007 00:00 2,5 C 81 % 1018,0 hPa 0,0 l/m 3,2 km/h (1 Bft) O-NO 0,00 h 0,025 mm 0 W/m -0,5 C 2,0 C 5,3 km/h (1 Bft)
27/01/2007 01:00 1,9 C 80 % 1017,9 hPa 0,0 l/m 4,6 km/h (1 Bft) O-NO 0,00 h 0,025 mm 0 W/m -1,2 C 0,9 C 7,2 km/h (2 Bft)
27/01/2007 02:00 2,1 C 75 % 1017,8 hPa 0,0 l/m 4,8 km/h (1 Bft) O 0,00 h 0,025 mm 0 W/m -1,9 C 0,9 C 6,9 km/h (2 Bft)
27/01/2007 03:00 1,3 C 73 % 1018,0 hPa 0,0 l/m 4,8 km/h (1 Bft) N-NO 0,00 h 0,025 mm 0 W/m -3,0 C -0,0 C 7,0 km/h (2 Bft)
27/01/2007 04:00 1,7 C 70 % 1018,1 hPa 0,0 l/m 9,0 km/h (2 Bft) O-NO 0,00 h 0,025 mm 0 W/m -3,2 C -1,0 C 13,1 km/h (3 Bft)
27/01/2007 05:00 1,7 C 66 % 1018,1 hPa 0,0 l/m 3,8 km/h (1 Bft) O-NO 0,00 h 0,025 mm 0 W/m -4,0 C 0,8 C 5,4 km/h (1 Bft)
27/01/2007 06:00 1,9 C 64 % 1018,5 hPa 0,0 l/m 1,9 km/h (1 Bft) O-NO 0,00 h 0,025 mm 0 W/m -4,1 C 1,7 C 2,9 km/h (1 Bft)
27/01/2007 07:00 1,3 C 66 % 1018,7 hPa 0,0 l/m 1,7 km/h (1 Bft) O-NO 0,00 h 0,025 mm 6 W/m -4,4 C 1,1 C 2,6 km/h (1 Bft)
27/01/2007 08:00 2,6 C 60 % 1019,2 hPa 0,0 l/m 1,7 km/h (1 Bft) O-NO 0,92 h 0,000 mm 66 W/m -4,5 C 2,4 C 2,8 km/h (1 Bft)
27/01/2007 09:00 5,3 C 51 % 1019,7 hPa 0,0 l/m 0,6 km/h (0 Bft) SO 1,00 h 0,025 mm 208 W/m -3,9 C 5,2 C 1,2 km/h (1 Bft)
27/01/2007 10:00 7,0 C 52 % 1020,3 hPa 0,0 l/m 2,4 km/h (1 Bft) S 1,00 h 0,102 mm 339 W/m -2,3 C 6,8 C 4,5 km/h (1 Bft)
27/01/2007 11:00 8,5 C 46 % 1020,7 hPa 0,0 l/m 3,4 km/h (1 Bft) S 1,00 h 0,152 mm 427 W/m -2,5 C 8,3 C 5,7 km/h (1 Bft)
27/01/2007 12:00 10,2 C 41 % 1020,8 hPa 0,0 l/m 3,4 km/h (1 Bft) S 1,00 h 0,203 mm 464 W/m -2,5 C 10,1 C 6,0 km/h (2 Bft)
27/01/2007 13:00 11,3 C 33 % 1020,5 hPa 0,0 l/m 1,7 km/h (1 Bft) S 1,00 h 0,254 mm 450 W/m -4,2 C 11,3 C 3,7 km/h (1 Bft)
27/01/2007 14:00 11,8 C 34 % 1020,1 hPa 0,0 l/m 6,3 km/h (2 Bft) SO 1,00 h 0,229 mm 381 W/m -3,5 C 11,8 C 9,5 km/h (2 Bft)
27/01/2007 15:00 11,7 C 39 % 1020,3 hPa 0,0 l/m 11,1 km/h (2 Bft) SO 1,00 h 0,229 mm 265 W/m -1,9 C 11,7 C 15,3 km/h (3 Bft)
27/01/2007 16:00 11,1 C 42 % 1020,3 hPa 0,0 l/m 6,9 km/h (2 Bft) SO 1,00 h 0,203 mm 125 W/m -1,3 C 11,1 C 9,6 km/h (2 Bft)
27/01/2007 17:00 9,3 C 44 % 1020,9 hPa 0,0 l/m 4,2 km/h (1 Bft) SO 0,33 h 0,102 mm 20 W/m -2,2 C 9,0 C 6,2 km/h (2 Bft)
27/01/2007 18:00 7,6 C 46 % 1021,8 hPa 0,0 l/m 8,6 km/h (2 Bft) O 0,00 h 0,051 mm 0 W/m -3,3 C 6,1 C 12,0 km/h (2 Bft)
27/01/2007 19:00 6,5 C 53 % 1022,9 hPa 0,0 l/m 4,9 km/h (1 Bft) NO 0,00 h 0,051 mm 0 W/m -2,3 C 5,8 C 7,2 km/h (2 Bft)
27/01/2007 20:00 5,4 C 58 % 1023,7 hPa 0,0 l/m 3,5 km/h (1 Bft) O-NO 0,00 h 0,051 mm 0 W/m -2,1 C 5,0 C 5,7 km/h (1 Bft)
27/01/2007 21:00 5,9 C 53 % 1024,4 hPa 0,0 l/m 6,4 km/h (2 Bft) O 0,00 h 0,025 mm 0 W/m -3,0 C 4,7 C 8,8 km/h (2 Bft)
27/01/2007 22:00 4,7 C 55 % 1024,9 hPa 0,0 l/m 5,0 km/h (1 Bft) N-NO 0,00 h 0,051 mm 0 W/m -3,7 C 3,8 C 7,7 km/h (2 Bft)
27/01/2007 23:00 5,1 C 48 % 1025,3 hPa 0,0 l/m 7,2 km/h (2 Bft) O-NO 0,00 h 0,051 mm 0 W/m -5,1 C 3,6 C 10,8 km/h (2 Bft)
28/01/2007 00:00 5,0 C 46 % 1025,6 hPa 0,0 l/m 2,8 km/h (1 Bft) O-NO 0,00 h 0,051 mm 0 W/m -5,5 C 4,6 C 4,8 km/h (1 Bft)
28/01/2007 01:00 4,7 C 45 % 1025,7 hPa 0,0 l/m 3,0 km/h (1 Bft) NO 0,00 h 0,051 mm 0 W/m -6,2 C 4,2 C 4,8 km/h (1 Bft)
28/01/2007 02:00 5,4 C 39 % 1025,8 hPa 0,0 l/m 0,3 km/h (0 Bft) NO 0,00 h 0,051 mm 0 W/m -7,3 C 5,4 C 0,7 km/h (0 Bft)
28/01/2007 03:00 5,6 C 39 % 1025,8 hPa 0,0 l/m 0,6 km/h (0 Bft) NO 0,00 h 0,051 mm 0 W/m -7,3 C 5,6 C 1,1 km/h (1 Bft)
28/01/2007 04:00 5,5 C 39 % 1025,7 hPa 0,0 l/m 2,9 km/h (1 Bft) O-NO 0,00 h 0,051 mm 0 W/m -7,2 C 5,2 C 3,8 km/h (1 Bft)
28/01/2007 05:00 5,6 C 39 % 1026,4 hPa 0,0 l/m 4,3 km/h (1 Bft) O-NO 0,00 h 0,051 mm 0 W/m -7,2 C 4,9 C 5,6 km/h (1 Bft)
28/01/2007 06:00 4,8 C 42 % 1026,9 hPa 0,0 l/m 1,7 km/h (1 Bft) O-NO 0,00 h 0,051 mm 0 W/m -7,0 C 4,8 C 2,6 km/h (1 Bft)
28/01/2007 07:00 5,1 C 41 % 1027,7 hPa 0,0 l/m 1,5 km/h (1 Bft) O-NO 0,00 h 0,051 mm 8 W/m -7,1 C 5,0 C 2,4 km/h (1 Bft)
28/01/2007 08:00 6,0 C 41 % 1028,5 hPa 0,0 l/m 3,3 km/h (1 Bft) O-NO 0,93 h 0,025 mm 69 W/m -6,3 C 5,9 C 5,0 km/h (1 Bft)
28/01/2007 09:00 8,4 C 42 % 1029,1 hPa 0,0 l/m 1,0 km/h (0 Bft) NO 1,00 h 0,051 mm 210 W/m -3,8 C 8,4 C 1,9 km/h (1 Bft)
28/01/2007 10:00 9,8 C 46 % 1029,3 hPa 0,0 l/m 0,9 km/h (0 Bft) S 1,00 h 0,102 mm 338 W/m -1,5 C 9,8 C 2,3 km/h (1 Bft)
28/01/2007 11:00 11,3 C 62 % 1029,4 hPa 0,0 l/m 6,0 km/h (2 Bft) S 1,00 h 0,178 mm 425 W/m 4,3 C 11,3 C 9,2 km/h (2 Bft)
28/01/2007 12:00 12,1 C 63 % 1028,7 hPa 0,0 l/m 5,6 km/h (1 Bft) S 1,00 h 0,229 mm 459 W/m 5,4 C 12,1 C 8,9 km/h (2 Bft)
28/01/2007 13:00 12,3 C 63 % 1027,6 hPa 0,0 l/m 7,0 km/h (2 Bft) S-SE 1,00 h 0,254 mm 444 W/m 5,5 C 12,3 C 11,0 km/h (2 Bft)
28/01/2007 14:00 12,1 C 64 % 1026,7 hPa 0,0 l/m 8,2 km/h (2 Bft) S 1,00 h 0,254 mm 374 W/m 5,5 C 12,1 C 12,1 km/h (2 Bft)
28/01/2007 15:00 11,8 C 67 % 1026,1 hPa 0,0 l/m 8,0 km/h (2 Bft) S 1,00 h 0,229 mm 260 W/m 5,8 C 11,8 C 11,2 km/h (2 Bft)
28/01/2007 16:00 10,8 C 72 % 1025,9 hPa 0,0 l/m 8,9 km/h (2 Bft) S 1,00 h 0,152 mm 119 W/m 5,8 C 10,7 C 12,5 km/h (3 Bft)
28/01/2007 17:00 8,9 C 80 % 1025,8 hPa 0,0 l/m 6,1 km/h (2 Bft) S-SO 0,15 h 0,102 mm 23 W/m 5,6 C 8,3 C 8,2 km/h (2 Bft)
28/01/2007 18:00 8,3 C 82 % 1025,7 hPa 0,0 l/m 2,7 km/h (1 Bft) O-SO 0,00 h 0,025 mm 0 W/m 5,5 C 8,2 C 4,2 km/h (1 Bft)
28/01/2007 19:00 8,1 C 82 % 1025,5 hPa 0,0 l/m 0,1 km/h (0 Bft) O 0,00 h 0,025 mm 0 W/m 5,3 C 8,1 C 0,3 km/h (0 Bft)
28/01/2007 20:00 8,1 C 81 % 1024,9 hPa 0,0 l/m 0,6 km/h (0 Bft) O 0,00 h 0,025 mm 0 W/m 5,0 C 8,1 C 1,6 km/h (1 Bft)
28/01/2007 21:00 8,1 C 78 % 1024,3 hPa 0,0 l/m 1,6 km/h (1 Bft) O 0,00 h 0,025 mm 0 W/m 4,5 C 8,0 C 3,2 km/h (1 Bft)
28/01/2007 22:00 7,3 C 80 % 1023,7 hPa 0,0 l/m 5,2 km/h (1 Bft) O-NO 0,00 h 0,025 mm 0 W/m 4,1 C 6,6 C 6,9 km/h (2 Bft)
28/01/2007 23:00 7,7 C 78 % 1023,7 hPa 0,0 l/m 3,1 km/h (1 Bft) O 0,00 h 0,025 mm 0 W/m 4,1 C 7,5 C 4,6 km/h (1 Bft)
Min-Date _ 24/01/07 27/01/07 24/01/07 - 22/01/07 - - - - 28/01/07 24/01/07 22/01/07
_ Min-Heure 02:14 13:36 06:15 - 00:01 - - - - 02:11 01:04 00:03
Minimum _ 0,6 C 29 % 989,7 hPa - 0,0 km/h (0 Bft) - - - - -8,0 C -5,8 C 0,0 km/h (0 Bft)
Max-Date _ 22/01/07 23/01/07 28/01/07 23/01/07 23/01/07 - 22/01/07 27/01/07 26/01/07 23/01/07 22/01/07 23/01/07
_ Max-Heure 12:26 09:45 11:30 15:33 09:57 - 12:22 13:00 13:53 09:45 12:26 09:57
Maximum _ 13,4 C 100 % 1029,5 hPa 3,0 l/m 40,2 km/h
S-SE (6 Bft)
- 0,02 h 0,254 mm 577 W/m 11,8 C 13,4 C 51,5 km/h
SE (7 Bft)
Moyenne _ 6,7 C 75 % 1009,8 hPa #11,8 l/m 5,7 km/h (1 Bft) O-NO #32:33 h #9,305 mm 169 W/m 2,2 C 5,8 C 8,4 km/h (2 Bft)
Roquefort les pins